sensor_id;sensor_type;location;lat;lon;timestamp;P1;durP1;ratioP1;P2;durP2;ratioP2
13171;SDS011;6651;53.200;10.432;2023-04-06T00:01:11;4.45;;;2.75;;
13171;SDS011;6651;53.200;10.432;2023-04-06T00:03:37;4.50;;;2.30;;
13171;SDS011;6651;53.200;10.432;2023-04-06T00:06:03;2.95;;;2.55;;
13171;SDS011;6651;53.200;10.432;2023-04-06T00:08:29;2.67;;;2.42;;
13171;SDS011;6651;53.200;10.432;2023-04-06T00:10:55;3.08;;;2.63;;
13171;SDS011;6651;53.200;10.432;2023-04-06T00:13:21;3.75;;;2.50;;
13171;SDS011;6651;53.200;10.432;2023-04-06T00:15:47;3.33;;;2.55;;
13171;SDS011;6651;53.200;10.432;2023-04-06T00:18:13;3.97;;;2.75;;
13171;SDS011;6651;53.200;10.432;2023-04-06T00:20:39;4.07;;;2.65;;
13171;SDS011;6651;53.200;10.432;2023-04-06T00:23:05;4.03;;;2.60;;
13171;SDS011;6651;53.200;10.432;2023-04-06T00:25:31;4.00;;;2.65;;
13171;SDS011;6651;53.200;10.432;2023-04-06T00:27:57;4.13;;;2.78;;
13171;SDS011;6651;53.200;10.432;2023-04-06T00:30:23;3.50;;;2.60;;
13171;SDS011;6651;53.200;10.432;2023-04-06T00:32:50;3.00;;;2.70;;
13171;SDS011;6651;53.200;10.432;2023-04-06T00:35:16;3.92;;;2.78;;
13171;SDS011;6651;53.200;10.432;2023-04-06T00:37:42;4.72;;;2.92;;
13171;SDS011;6651;53.200;10.432;2023-04-06T00:40:08;5.65;;;3.22;;
13171;SDS011;6651;53.200;10.432;2023-04-06T00:42:34;4.47;;;2.90;;
13171;SDS011;6651;53.200;10.432;2023-04-06T00:45:01;4.22;;;2.97;;
13171;SDS011;6651;53.200;10.432;2023-04-06T00:47:27;3.42;;;2.63;;
13171;SDS011;6651;53.200;10.432;2023-04-06T00:49:53;5.00;;;3.00;;
13171;SDS011;6651;53.200;10.432;2023-04-06T00:52:20;3.45;;;2.90;;
13171;SDS011;6651;53.200;10.432;2023-04-06T00:54:46;4.25;;;2.60;;
13171;SDS011;6651;53.200;10.432;2023-04-06T00:57:12;4.03;;;2.83;;
13171;SDS011;6651;53.200;10.432;2023-04-06T00:59:39;3.80;;;2.83;;
13171;SDS011;6651;53.200;10.432;2023-04-06T01:02:05;4.97;;;3.10;;
13171;SDS011;6651;53.200;10.432;2023-04-06T01:04:31;3.63;;;2.78;;
13171;SDS011;6651;53.200;10.432;2023-04-06T01:06:57;4.28;;;2.80;;
13171;SDS011;6651;53.200;10.432;2023-04-06T01:09:23;3.35;;;2.70;;
13171;SDS011;6651;53.200;10.432;2023-04-06T01:11:50;3.78;;;2.70;;
13171;SDS011;6651;53.200;10.432;2023-04-06T01:14:16;3.53;;;2.60;;
13171;SDS011;6651;53.200;10.432;2023-04-06T01:16:42;3.40;;;2.53;;
13171;SDS011;6651;53.200;10.432;2023-04-06T01:19:08;6.53;;;3.30;;
13171;SDS011;6651;53.200;10.432;2023-04-06T01:21:35;4.90;;;2.80;;
13171;SDS011;6651;53.200;10.432;2023-04-06T01:24:01;4.15;;;3.00;;
13171;SDS011;6651;53.200;10.432;2023-04-06T01:26:27;4.28;;;2.95;;
13171;SDS011;6651;53.200;10.432;2023-04-06T01:28:54;2.78;;;2.47;;
13171;SDS011;6651;53.200;10.432;2023-04-06T01:31:20;4.93;;;2.80;;
13171;SDS011;6651;53.200;10.432;2023-04-06T01:33:46;3.08;;;2.67;;
13171;SDS011;6651;53.200;10.432;2023-04-06T01:36:12;4.22;;;3.08;;
13171;SDS011;6651;53.200;10.432;2023-04-06T01:38:38;3.55;;;2.85;;
13171;SDS011;6651;53.200;10.432;2023-04-06T01:41:05;4.70;;;3.00;;
13171;SDS011;6651;53.200;10.432;2023-04-06T01:43:31;3.17;;;2.63;;
13171;SDS011;6651;53.200;10.432;2023-04-06T01:45:57;3.75;;;2.97;;
13171;SDS011;6651;53.200;10.432;2023-04-06T01:48:23;4.35;;;3.20;;
13171;SDS011;6651;53.200;10.432;2023-04-06T01:50:49;3.75;;;2.80;;
13171;SDS011;6651;53.200;10.432;2023-04-06T01:53:15;5.32;;;3.20;;
13171;SDS011;6651;53.200;10.432;2023-04-06T01:55:41;4.65;;;2.70;;
13171;SDS011;6651;53.200;10.432;2023-04-06T01:58:07;6.13;;;3.25;;
13171;SDS011;6651;53.200;10.432;2023-04-06T02:00:33;4.57;;;2.97;;
13171;SDS011;6651;53.200;10.432;2023-04-06T02:03:00;5.55;;;3.35;;
13171;SDS011;6651;53.200;10.432;2023-04-06T02:05:26;5.20;;;3.10;;
13171;SDS011;6651;53.200;10.432;2023-04-06T02:07:52;5.25;;;3.10;;
13171;SDS011;6651;53.200;10.432;2023-04-06T02:10:18;3.53;;;3.05;;
13171;SDS011;6651;53.200;10.432;2023-04-06T02:12:44;4.88;;;3.28;;
13171;SDS011;6651;53.200;10.432;2023-04-06T02:15:10;4.18;;;3.05;;
13171;SDS011;6651;53.200;10.432;2023-04-06T02:17:38;3.30;;;2.72;;
13171;SDS011;6651;53.200;10.432;2023-04-06T02:20:04;3.88;;;2.85;;
13171;SDS011;6651;53.200;10.432;2023-04-06T02:22:30;4.20;;;3.20;;
13171;SDS011;6651;53.200;10.432;2023-04-06T02:24:56;3.83;;;2.80;;
13171;SDS011;6651;53.200;10.432;2023-04-06T02:27:22;4.47;;;3.08;;
13171;SDS011;6651;53.200;10.432;2023-04-06T02:29:48;4.80;;;2.80;;
13171;SDS011;6651;53.200;10.432;2023-04-06T02:32:15;3.35;;;2.90;;
13171;SDS011;6651;53.200;10.432;2023-04-06T02:34:41;3.75;;;3.10;;
13171;SDS011;6651;53.200;10.432;2023-04-06T02:37:07;3.75;;;2.90;;
13171;SDS011;6651;53.200;10.432;2023-04-06T02:39:33;3.35;;;2.75;;
13171;SDS011;6651;53.200;10.432;2023-04-06T02:41:59;4.57;;;3.10;;
13171;SDS011;6651;53.200;10.432;2023-04-06T02:44:25;4.70;;;3.15;;
13171;SDS011;6651;53.200;10.432;2023-04-06T02:46:51;5.55;;;3.00;;
13171;SDS011;6651;53.200;10.432;2023-04-06T02:49:17;3.75;;;2.90;;
13171;SDS011;6651;53.200;10.432;2023-04-06T02:51:43;3.85;;;2.97;;
13171;SDS011;6651;53.200;10.432;2023-04-06T02:54:09;4.07;;;3.05;;
13171;SDS011;6651;53.200;10.432;2023-04-06T02:56:35;3.63;;;2.83;;
13171;SDS011;6651;53.200;10.432;2023-04-06T02:59:02;4.03;;;2.85;;
13171;SDS011;6651;53.200;10.432;2023-04-06T03:01:28;3.95;;;2.65;;
13171;SDS011;6651;53.200;10.432;2023-04-06T03:03:54;4.40;;;2.78;;
13171;SDS011;6651;53.200;10.432;2023-04-06T03:06:20;5.40;;;3.15;;
13171;SDS011;6651;53.200;10.432;2023-04-06T03:08:46;5.65;;;3.10;;
13171;SDS011;6651;53.200;10.432;2023-04-06T03:11:12;4.55;;;2.78;;
13171;SDS011;6651;53.200;10.432;2023-04-06T03:13:38;4.25;;;2.75;;
13171;SDS011;6651;53.200;10.432;2023-04-06T03:16:04;4.45;;;2.88;;
13171;SDS011;6651;53.200;10.432;2023-04-06T03:18:31;3.45;;;2.88;;
13171;SDS011;6651;53.200;10.432;2023-04-06T03:20:57;5.03;;;2.72;;
13171;SDS011;6651;53.200;10.432;2023-04-06T03:23:25;2.95;;;2.65;;
13171;SDS011;6651;53.200;10.432;2023-04-06T03:25:51;5.05;;;2.85;;
13171;SDS011;6651;53.200;10.432;2023-04-06T03:28:17;3.00;;;2.70;;
13171;SDS011;6651;53.200;10.432;2023-04-06T03:30:43;3.13;;;2.83;;
13171;SDS011;6651;53.200;10.432;2023-04-06T03:33:09;4.47;;;3.03;;
13171;SDS011;6651;53.200;10.432;2023-04-06T03:35:35;4.00;;;3.28;;
13171;SDS011;6651;53.200;10.432;2023-04-06T03:38:02;5.00;;;3.17;;
13171;SDS011;6651;53.200;10.432;2023-04-06T03:40:28;5.03;;;3.30;;
13171;SDS011;6651;53.200;10.432;2023-04-06T03:42:54;5.10;;;3.78;;
13171;SDS011;6651;53.200;10.432;2023-04-06T03:45:20;4.40;;;2.90;;
13171;SDS011;6651;53.200;10.432;2023-04-06T03:47:46;4.20;;;2.92;;
13171;SDS011;6651;53.200;10.432;2023-04-06T03:50:12;7.00;;;3.47;;
13171;SDS011;6651;53.200;10.432;2023-04-06T03:52:38;5.18;;;3.22;;
13171;SDS011;6651;53.200;10.432;2023-04-06T03:55:04;4.20;;;3.28;;
13171;SDS011;6651;53.200;10.432;2023-04-06T03:57:30;4.60;;;3.03;;
13171;SDS011;6651;53.200;10.432;2023-04-06T03:59:56;4.55;;;3.50;;
13171;SDS011;6651;53.200;10.432;2023-04-06T04:02:22;4.75;;;3.10;;
13171;SDS011;6651;53.200;10.432;2023-04-06T04:04:48;6.30;;;3.28;;
13171;SDS011;6651;53.200;10.432;2023-04-06T04:07:15;5.07;;;3.30;;
13171;SDS011;6651;53.200;10.432;2023-04-06T04:09:41;6.00;;;3.75;;
13171;SDS011;6651;53.200;10.432;2023-04-06T04:12:07;6.05;;;3.70;;
13171;SDS011;6651;53.200;10.432;2023-04-06T04:14:33;5.13;;;3.83;;
13171;SDS011;6651;53.200;10.432;2023-04-06T04:16:59;5.60;;;3.72;;
13171;SDS011;6651;53.200;10.432;2023-04-06T04:19:25;4.78;;;3.60;;
13171;SDS011;6651;53.200;10.432;2023-04-06T04:21:51;4.82;;;3.50;;
13171;SDS011;6651;53.200;10.432;2023-04-06T04:24:17;4.75;;;3.75;;
13171;SDS011;6651;53.200;10.432;2023-04-06T04:26:43;5.55;;;4.10;;
13171;SDS011;6651;53.200;10.432;2023-04-06T04:29:09;4.38;;;3.28;;
13171;SDS011;6651;53.200;10.432;2023-04-06T04:31:35;5.32;;;3.88;;
13171;SDS011;6651;53.200;10.432;2023-04-06T04:34:01;6.93;;;3.88;;
13171;SDS011;6651;53.200;10.432;2023-04-06T04:36:27;5.07;;;3.55;;
13171;SDS011;6651;53.200;10.432;2023-04-06T04:38:53;4.95;;;3.47;;
13171;SDS011;6651;53.200;10.432;2023-04-06T04:41:19;5.43;;;3.70;;
13171;SDS011;6651;53.200;10.432;2023-04-06T04:43:45;5.35;;;3.92;;
13171;SDS011;6651;53.200;10.432;2023-04-06T04:46:12;5.75;;;4.20;;
13171;SDS011;6651;53.200;10.432;2023-04-06T04:48:38;4.97;;;3.67;;
13171;SDS011;6651;53.200;10.432;2023-04-06T04:51:04;5.63;;;3.88;;
13171;SDS011;6651;53.200;10.432;2023-04-06T04:53:30;4.97;;;4.22;;
13171;SDS011;6651;53.200;10.432;2023-04-06T04:55:56;5.82;;;4.45;;
13171;SDS011;6651;53.200;10.432;2023-04-06T04:58:22;6.75;;;4.03;;
13171;SDS011;6651;53.200;10.432;2023-04-06T05:00:48;8.10;;;4.47;;
13171;SDS011;6651;53.200;10.432;2023-04-06T05:03:19;5.32;;;4.25;;
13171;SDS011;6651;53.200;10.432;2023-04-06T05:05:45;7.38;;;4.53;;
13171;SDS011;6651;53.200;10.432;2023-04-06T05:08:11;6.38;;;4.55;;
13171;SDS011;6651;53.200;10.432;2023-04-06T05:10:38;6.43;;;4.25;;
13171;SDS011;6651;53.200;10.432;2023-04-06T05:13:04;5.60;;;4.10;;
13171;SDS011;6651;53.200;10.432;2023-04-06T05:15:30;5.95;;;4.15;;
13171;SDS011;6651;53.200;10.432;2023-04-06T05:17:56;5.78;;;4.10;;
13171;SDS011;6651;53.200;10.432;2023-04-06T05:20:22;5.28;;;4.00;;
13171;SDS011;6651;53.200;10.432;2023-04-06T05:22:48;6.25;;;4.00;;
13171;SDS011;6651;53.200;10.432;2023-04-06T05:25:14;6.32;;;4.38;;
13171;SDS011;6651;53.200;10.432;2023-04-06T05:27:40;5.97;;;4.15;;
13171;SDS011;6651;53.200;10.432;2023-04-06T05:30:07;6.15;;;4.38;;
13171;SDS011;6651;53.200;10.432;2023-04-06T05:32:33;6.22;;;4.55;;
13171;SDS011;6651;53.200;10.432;2023-04-06T05:35:00;7.47;;;5.43;;
13171;SDS011;6651;53.200;10.432;2023-04-06T05:37:26;7.07;;;5.85;;
13171;SDS011;6651;53.200;10.432;2023-04-06T05:39:52;9.18;;;5.50;;
13171;SDS011;6651;53.200;10.432;2023-04-06T05:42:18;7.18;;;5.32;;
13171;SDS011;6651;53.200;10.432;2023-04-06T05:44:44;7.18;;;5.22;;
13171;SDS011;6651;53.200;10.432;2023-04-06T05:47:10;7.53;;;5.45;;
13171;SDS011;6651;53.200;10.432;2023-04-06T05:49:36;6.80;;;5.20;;
13171;SDS011;6651;53.200;10.432;2023-04-06T05:52:02;7.38;;;5.30;;
13171;SDS011;6651;53.200;10.432;2023-04-06T05:54:29;7.53;;;5.40;;
13171;SDS011;6651;53.200;10.432;2023-04-06T05:56:55;7.75;;;5.43;;
13171;SDS011;6651;53.200;10.432;2023-04-06T05:59:21;7.53;;;5.93;;
13171;SDS011;6651;53.200;10.432;2023-04-06T06:01:48;8.45;;;5.93;;
13171;SDS011;6651;53.200;10.432;2023-04-06T06:04:14;8.23;;;6.20;;
13171;SDS011;6651;53.200;10.432;2023-04-06T06:06:40;7.60;;;5.45;;
13171;SDS011;6651;53.200;10.432;2023-04-06T06:09:06;9.35;;;5.93;;
13171;SDS011;6651;53.200;10.432;2023-04-06T06:11:32;8.25;;;5.97;;
13171;SDS011;6651;53.200;10.432;2023-04-06T06:13:58;7.30;;;5.57;;
13171;SDS011;6651;53.200;10.432;2023-04-06T06:16:24;6.70;;;5.55;;
13171;SDS011;6651;53.200;10.432;2023-04-06T06:18:50;5.68;;;5.07;;
13171;SDS011;6651;53.200;10.432;2023-04-06T06:21:16;8.60;;;5.38;;
13171;SDS011;6651;53.200;10.432;2023-04-06T06:23:42;6.82;;;5.30;;
13171;SDS011;6651;53.200;10.432;2023-04-06T06:26:08;6.10;;;5.05;;
13171;SDS011;6651;53.200;10.432;2023-04-06T06:28:34;6.63;;;5.05;;
13171;SDS011;6651;53.200;10.432;2023-04-06T06:31:01;6.28;;;5.00;;
13171;SDS011;6651;53.200;10.432;2023-04-06T06:33:27;6.80;;;4.75;;
13171;SDS011;6651;53.200;10.432;2023-04-06T06:35:53;6.85;;;4.60;;
13171;SDS011;6651;53.200;10.432;2023-04-06T06:38:19;8.18;;;5.13;;
13171;SDS011;6651;53.200;10.432;2023-04-06T06:40:45;5.82;;;4.57;;
13171;SDS011;6651;53.200;10.432;2023-04-06T06:43:12;6.78;;;4.80;;
13171;SDS011;6651;53.200;10.432;2023-04-06T06:45:38;6.93;;;4.32;;
13171;SDS011;6651;53.200;10.432;2023-04-06T06:48:04;5.50;;;4.10;;
13171;SDS011;6651;53.200;10.432;2023-04-06T06:50:30;5.35;;;4.05;;
13171;SDS011;6651;53.200;10.432;2023-04-06T06:52:56;5.30;;;4.07;;
13171;SDS011;6651;53.200;10.432;2023-04-06T06:55:22;5.13;;;4.10;;
13171;SDS011;6651;53.200;10.432;2023-04-06T06:57:48;6.57;;;4.70;;
13171;SDS011;6651;53.200;10.432;2023-04-06T07:00:15;6.18;;;4.05;;
13171;SDS011;6651;53.200;10.432;2023-04-06T07:02:41;5.72;;;4.38;;
13171;SDS011;6651;53.200;10.432;2023-04-06T07:05:07;7.18;;;4.40;;
13171;SDS011;6651;53.200;10.432;2023-04-06T07:07:33;7.95;;;4.50;;
13171;SDS011;6651;53.200;10.432;2023-04-06T07:10:00;6.10;;;4.50;;
13171;SDS011;6651;53.200;10.432;2023-04-06T07:12:26;6.20;;;4.55;;
13171;SDS011;6651;53.200;10.432;2023-04-06T07:14:52;6.05;;;4.70;;
13171;SDS011;6651;53.200;10.432;2023-04-06T07:17:18;5.55;;;4.20;;
13171;SDS011;6651;53.200;10.432;2023-04-06T07:19:44;6.45;;;4.10;;
13171;SDS011;6651;53.200;10.432;2023-04-06T07:22:11;5.05;;;3.70;;
13171;SDS011;6651;53.200;10.432;2023-04-06T07:24:37;7.03;;;4.15;;
13171;SDS011;6651;53.200;10.432;2023-04-06T07:27:03;5.75;;;4.20;;
13171;SDS011;6651;53.200;10.432;2023-04-06T07:29:29;5.50;;;3.80;;
13171;SDS011;6651;53.200;10.432;2023-04-06T07:31:56;6.20;;;4.30;;
13171;SDS011;6651;53.200;10.432;2023-04-06T07:34:22;6.82;;;4.40;;
13171;SDS011;6651;53.200;10.432;2023-04-06T07:36:48;5.75;;;4.40;;
13171;SDS011;6651;53.200;10.432;2023-04-06T07:39:14;6.65;;;4.15;;
13171;SDS011;6651;53.200;10.432;2023-04-06T07:41:40;6.43;;;4.45;;
13171;SDS011;6651;53.200;10.432;2023-04-06T07:44:06;7.07;;;4.30;;
13171;SDS011;6651;53.200;10.432;2023-04-06T07:46:32;6.60;;;4.38;;
13171;SDS011;6651;53.200;10.432;2023-04-06T07:48:59;7.63;;;4.50;;
13171;SDS011;6651;53.200;10.432;2023-04-06T07:51:26;5.95;;;4.35;;
13171;SDS011;6651;53.200;10.432;2023-04-06T07:53:52;6.47;;;4.30;;
13171;SDS011;6651;53.200;10.432;2023-04-06T07:56:18;6.47;;;4.30;;
13171;SDS011;6651;53.200;10.432;2023-04-06T07:58:45;5.78;;;4.10;;
13171;SDS011;6651;53.200;10.432;2023-04-06T08:01:13;6.68;;;4.28;;
13171;SDS011;6651;53.200;10.432;2023-04-06T08:03:39;6.85;;;4.75;;
13171;SDS011;6651;53.200;10.432;2023-04-06T08:06:05;5.03;;;4.25;;
13171;SDS011;6651;53.200;10.432;2023-04-06T08:08:31;8.85;;;4.50;;
13171;SDS011;6651;53.200;10.432;2023-04-06T08:10:57;5.88;;;4.10;;
13171;SDS011;6651;53.200;10.432;2023-04-06T08:13:23;5.78;;;4.18;;
13171;SDS011;6651;53.200;10.432;2023-04-06T08:15:50;7.10;;;4.50;;
13171;SDS011;6651;53.200;10.432;2023-04-06T08:18:16;6.20;;;4.20;;
13171;SDS011;6651;53.200;10.432;2023-04-06T08:20:42;4.93;;;3.83;;
13171;SDS011;6651;53.200;10.432;2023-04-06T08:23:08;5.72;;;4.13;;
13171;SDS011;6651;53.200;10.432;2023-04-06T08:25:35;6.00;;;3.95;;
13171;SDS011;6651;53.200;10.432;2023-04-06T08:28:02;6.25;;;4.20;;
13171;SDS011;6651;53.200;10.432;2023-04-06T08:30:28;5.38;;;4.22;;
13171;SDS011;6651;53.200;10.432;2023-04-06T08:32:55;6.03;;;4.25;;
13171;SDS011;6651;53.200;10.432;2023-04-06T08:35:21;6.45;;;4.28;;
13171;SDS011;6651;53.200;10.432;2023-04-06T08:37:47;7.13;;;4.40;;
13171;SDS011;6651;53.200;10.432;2023-04-06T08:40:13;6.70;;;4.40;;
13171;SDS011;6651;53.200;10.432;2023-04-06T08:42:40;6.75;;;4.38;;
13171;SDS011;6651;53.200;10.432;2023-04-06T08:45:07;5.82;;;4.03;;
13171;SDS011;6651;53.200;10.432;2023-04-06T08:47:34;5.68;;;4.13;;
13171;SDS011;6651;53.200;10.432;2023-04-06T08:50:01;6.35;;;4.20;;
13171;SDS011;6651;53.200;10.432;2023-04-06T08:52:28;6.85;;;4.65;;
13171;SDS011;6651;53.200;10.432;2023-04-06T08:54:57;5.20;;;4.20;;
13171;SDS011;6651;53.200;10.432;2023-04-06T08:57:23;5.60;;;4.25;;
13171;SDS011;6651;53.200;10.432;2023-04-06T08:59:50;6.25;;;4.40;;
13171;SDS011;6651;53.200;10.432;2023-04-06T09:02:19;5.55;;;4.40;;
13171;SDS011;6651;53.200;10.432;2023-04-06T09:04:46;5.80;;;4.40;;
13171;SDS011;6651;53.200;10.432;2023-04-06T09:07:13;6.93;;;4.80;;
13171;SDS011;6651;53.200;10.432;2023-04-06T09:09:40;6.90;;;4.50;;
13171;SDS011;6651;53.200;10.432;2023-04-06T09:12:21;5.55;;;4.10;;
13171;SDS011;6651;53.200;10.432;2023-04-06T09:14:47;5.75;;;4.65;;
13171;SDS011;6651;53.200;10.432;2023-04-06T09:17:20;8.35;;;4.40;;
13171;SDS011;6651;53.200;10.432;2023-04-06T09:19:47;7.45;;;5.20;;
13171;SDS011;6651;53.200;10.432;2023-04-06T09:22:13;6.13;;;4.90;;
13171;SDS011;6651;53.200;10.432;2023-04-06T09:24:40;6.55;;;5.00;;
13171;SDS011;6651;53.200;10.432;2023-04-06T09:27:06;5.85;;;4.70;;
13171;SDS011;6651;53.200;10.432;2023-04-06T09:29:32;5.68;;;4.55;;
13171;SDS011;6651;53.200;10.432;2023-04-06T09:32:02;6.72;;;4.90;;
13171;SDS011;6651;53.200;10.432;2023-04-06T09:34:28;7.28;;;4.72;;
13171;SDS011;6651;53.200;10.432;2023-04-06T09:36:54;6.38;;;4.38;;
13171;SDS011;6651;53.200;10.432;2023-04-06T09:39:21;6.70;;;4.80;;
13171;SDS011;6651;53.200;10.432;2023-04-06T09:41:49;6.25;;;4.40;;
13171;SDS011;6651;53.200;10.432;2023-04-06T09:44:16;6.57;;;5.13;;
13171;SDS011;6651;53.200;10.432;2023-04-06T09:46:42;5.68;;;4.28;;
13171;SDS011;6651;53.200;10.432;2023-04-06T09:49:09;6.90;;;4.63;;
13171;SDS011;6651;53.200;10.432;2023-04-06T09:51:39;5.35;;;4.68;;
13171;SDS011;6651;53.200;10.432;2023-04-06T09:54:06;5.18;;;4.53;;
13171;SDS011;6651;53.200;10.432;2023-04-06T09:56:56;7.00;;;5.10;;
13171;SDS011;6651;53.200;10.432;2023-04-06T10:01:50;6.53;;;5.30;;
13171;SDS011;6651;53.200;10.432;2023-04-06T10:06:46;6.28;;;5.13;;
13171;SDS011;6651;53.200;10.432;2023-04-06T10:09:17;6.10;;;5.05;;
13171;SDS011;6651;53.200;10.432;2023-04-06T10:11:43;7.18;;;5.15;;
13171;SDS011;6651;53.200;10.432;2023-04-06T10:14:10;7.10;;;5.43;;
13171;SDS011;6651;53.200;10.432;2023-04-06T10:16:36;6.93;;;5.45;;
13171;SDS011;6651;53.200;10.432;2023-04-06T10:19:24;6.07;;;5.13;;
13171;SDS011;6651;53.200;10.432;2023-04-06T10:21:50;7.03;;;5.22;;
13171;SDS011;6651;53.200;10.432;2023-04-06T10:24:16;5.82;;;4.80;;
13171;SDS011;6651;53.200;10.432;2023-04-06T10:26:43;7.65;;;5.10;;
13171;SDS011;6651;53.200;10.432;2023-04-06T10:29:09;6.90;;;5.47;;
13171;SDS011;6651;53.200;10.432;2023-04-06T10:31:39;7.45;;;5.65;;
13171;SDS011;6651;53.200;10.432;2023-04-06T10:34:05;6.75;;;5.60;;
13171;SDS011;6651;53.200;10.432;2023-04-06T10:36:31;6.47;;;4.90;;
13171;SDS011;6651;53.200;10.432;2023-04-06T10:38:59;7.85;;;5.30;;
13171;SDS011;6651;53.200;10.432;2023-04-06T10:44:00;6.45;;;5.05;;
13171;SDS011;6651;53.200;10.432;2023-04-06T10:46:27;5.70;;;4.95;;
13171;SDS011;6651;53.200;10.432;2023-04-06T10:48:54;5.55;;;4.85;;
13171;SDS011;6651;53.200;10.432;2023-04-06T10:51:24;6.30;;;5.00;;
13171;SDS011;6651;53.200;10.432;2023-04-06T10:53:54;8.05;;;5.20;;
13171;SDS011;6651;53.200;10.432;2023-04-06T10:56:21;7.55;;;5.10;;
13171;SDS011;6651;53.200;10.432;2023-04-06T10:58:48;7.10;;;4.90;;
13171;SDS011;6651;53.200;10.432;2023-04-06T11:01:18;6.20;;;5.00;;
13171;SDS011;6651;53.200;10.432;2023-04-06T11:03:48;6.03;;;5.00;;
13171;SDS011;6651;53.200;10.432;2023-04-06T11:06:21;6.80;;;4.65;;
13171;SDS011;6651;53.200;10.432;2023-04-06T11:08:48;5.95;;;4.68;;
13171;SDS011;6651;53.200;10.432;2023-04-06T11:11:15;9.38;;;4.90;;
13171;SDS011;6651;53.200;10.432;2023-04-06T11:13:59;7.13;;;5.50;;
13171;SDS011;6651;53.200;10.432;2023-04-06T11:21:40;7.07;;;5.03;;
13171;SDS011;6651;53.200;10.432;2023-04-06T11:24:21;6.80;;;4.95;;
13171;SDS011;6651;53.200;10.432;2023-04-06T11:26:51;6.00;;;5.20;;
13171;SDS011;6651;53.200;10.432;2023-04-06T11:29:18;7.53;;;5.55;;
13171;SDS011;6651;53.200;10.432;2023-04-06T11:31:45;9.02;;;6.15;;
13171;SDS011;6651;53.200;10.432;2023-04-06T11:34:18;6.68;;;5.97;;
13171;SDS011;6651;53.200;10.432;2023-04-06T11:36:45;8.02;;;6.20;;
13171;SDS011;6651;53.200;10.432;2023-04-06T11:39:12;8.55;;;5.85;;
13171;SDS011;6651;53.200;10.432;2023-04-06T11:41:38;6.60;;;5.18;;
13171;SDS011;6651;53.200;10.432;2023-04-06T11:44:05;7.53;;;5.90;;
13171;SDS011;6651;53.200;10.432;2023-04-06T11:46:32;8.25;;;5.85;;
13171;SDS011;6651;53.200;10.432;2023-04-06T11:48:59;7.75;;;5.95;;
13171;SDS011;6651;53.200;10.432;2023-04-06T11:51:25;6.75;;;5.80;;
13171;SDS011;6651;53.200;10.432;2023-04-06T11:53:52;7.20;;;6.30;;
13171;SDS011;6651;53.200;10.432;2023-04-06T11:56:30;7.85;;;6.03;;
13171;SDS011;6651;53.200;10.432;2023-04-06T11:58:57;6.60;;;5.90;;
13171;SDS011;6651;53.200;10.432;2023-04-06T12:01:25;7.03;;;5.97;;
13171;SDS011;6651;53.200;10.432;2023-04-06T12:03:51;9.40;;;6.65;;
13171;SDS011;6651;53.200;10.432;2023-04-06T12:06:18;8.05;;;5.97;;
13171;SDS011;6651;53.200;10.432;2023-04-06T12:08:44;7.38;;;6.40;;
13171;SDS011;6651;53.200;10.432;2023-04-06T12:11:10;7.53;;;6.20;;
13171;SDS011;6651;53.200;10.432;2023-04-06T12:13:37;8.35;;;6.50;;
13171;SDS011;6651;53.200;10.432;2023-04-06T12:16:03;9.38;;;6.95;;
13171;SDS011;6651;53.200;10.432;2023-04-06T12:18:30;7.93;;;7.00;;
13171;SDS011;6651;53.200;10.432;2023-04-06T12:20:56;8.02;;;6.72;;
13171;SDS011;6651;53.200;10.432;2023-04-06T12:23:22;8.68;;;6.53;;
13171;SDS011;6651;53.200;10.432;2023-04-06T12:25:48;8.10;;;6.85;;
13171;SDS011;6651;53.200;10.432;2023-04-06T12:28:15;7.78;;;6.95;;
13171;SDS011;6651;53.200;10.432;2023-04-06T12:30:41;8.02;;;7.20;;
13171;SDS011;6651;53.200;10.432;2023-04-06T12:33:07;7.53;;;6.72;;
13171;SDS011;6651;53.200;10.432;2023-04-06T12:35:33;7.70;;;6.85;;
13171;SDS011;6651;53.200;10.432;2023-04-06T12:38:00;7.80;;;7.00;;
13171;SDS011;6651;53.200;10.432;2023-04-06T12:40:26;8.13;;;6.72;;
13171;SDS011;6651;53.200;10.432;2023-04-06T12:42:52;7.43;;;6.60;;
13171;SDS011;6651;53.200;10.432;2023-04-06T12:45:18;8.90;;;6.43;;
13171;SDS011;6651;53.200;10.432;2023-04-06T12:47:44;8.60;;;7.25;;
13171;SDS011;6651;53.200;10.432;2023-04-06T12:50:10;8.35;;;6.82;;
13171;SDS011;6651;53.200;10.432;2023-04-06T12:52:36;8.77;;;6.97;;
13171;SDS011;6651;53.200;10.432;2023-04-06T12:55:02;9.18;;;6.45;;
13171;SDS011;6651;53.200;10.432;2023-04-06T12:57:29;7.57;;;6.78;;
13171;SDS011;6651;53.200;10.432;2023-04-06T12:59:56;8.30;;;6.90;;
13171;SDS011;6651;53.200;10.432;2023-04-06T13:02:22;7.30;;;6.28;;
13171;SDS011;6651;53.200;10.432;2023-04-06T13:04:49;10.38;;;6.90;;
13171;SDS011;6651;53.200;10.432;2023-04-06T13:07:15;8.88;;;6.97;;
13171;SDS011;6651;53.200;10.432;2023-04-06T13:09:41;8.30;;;7.13;;
13171;SDS011;6651;53.200;10.432;2023-04-06T13:12:07;11.00;;;7.40;;
13171;SDS011;6651;53.200;10.432;2023-04-06T13:14:33;8.90;;;6.95;;
13171;SDS011;6651;53.200;10.432;2023-04-06T13:16:59;8.30;;;6.80;;
13171;SDS011;6651;53.200;10.432;2023-04-06T13:19:25;8.40;;;6.95;;
13171;SDS011;6651;53.200;10.432;2023-04-06T13:21:52;8.32;;;7.00;;
13171;SDS011;6651;53.200;10.432;2023-04-06T13:24:18;7.72;;;6.45;;
13171;SDS011;6651;53.200;10.432;2023-04-06T13:26:44;10.38;;;7.05;;
13171;SDS011;6651;53.200;10.432;2023-04-06T13:29:10;8.30;;;7.10;;
13171;SDS011;6651;53.200;10.432;2023-04-06T13:31:37;8.35;;;6.53;;
13171;SDS011;6651;53.200;10.432;2023-04-06T13:34:03;7.75;;;6.68;;
13171;SDS011;6651;53.200;10.432;2023-04-06T13:36:30;7.47;;;6.60;;
13171;SDS011;6651;53.200;10.432;2023-04-06T13:38:57;8.65;;;6.68;;
13171;SDS011;6651;53.200;10.432;2023-04-06T13:41:24;8.73;;;6.68;;
13171;SDS011;6651;53.200;10.432;2023-04-06T13:43:51;7.55;;;6.75;;
13171;SDS011;6651;53.200;10.432;2023-04-06T13:46:17;7.40;;;6.53;;
13171;SDS011;6651;53.200;10.432;2023-04-06T13:48:43;8.20;;;6.32;;
13171;SDS011;6651;53.200;10.432;2023-04-06T13:53:36;8.07;;;7.28;;
13171;SDS011;6651;53.200;10.432;2023-04-06T13:56:02;7.32;;;6.38;;
13171;SDS011;6651;53.200;10.432;2023-04-06T13:58:28;7.35;;;6.60;;
13171;SDS011;6651;53.200;10.432;2023-04-06T14:00:54;9.27;;;7.03;;
13171;SDS011;6651;53.200;10.432;2023-04-06T14:03:21;9.95;;;6.72;;
13171;SDS011;6651;53.200;10.432;2023-04-06T14:05:48;8.95;;;6.57;;
13171;SDS011;6651;53.200;10.432;2023-04-06T14:08:14;9.48;;;6.97;;
13171;SDS011;6651;53.200;10.432;2023-04-06T14:10:40;8.50;;;6.63;;
13171;SDS011;6651;53.200;10.432;2023-04-06T14:13:07;8.50;;;7.03;;
13171;SDS011;6651;53.200;10.432;2023-04-06T14:15:33;8.77;;;7.10;;
13171;SDS011;6651;53.200;10.432;2023-04-06T14:18:00;9.23;;;6.60;;
13171;SDS011;6651;53.200;10.432;2023-04-06T14:20:26;9.15;;;6.70;;
13171;SDS011;6651;53.200;10.432;2023-04-06T14:22:52;7.50;;;6.63;;
13171;SDS011;6651;53.200;10.432;2023-04-06T14:25:19;9.07;;;6.60;;
13171;SDS011;6651;53.200;10.432;2023-04-06T14:27:46;7.75;;;6.75;;
13171;SDS011;6651;53.200;10.432;2023-04-06T14:30:12;7.72;;;6.82;;
13171;SDS011;6651;53.200;10.432;2023-04-06T14:32:38;6.95;;;6.25;;
13171;SDS011;6651;53.200;10.432;2023-04-06T14:35:04;8.77;;;6.78;;
13171;SDS011;6651;53.200;10.432;2023-04-06T14:37:30;9.70;;;6.90;;
13171;SDS011;6651;53.200;10.432;2023-04-06T14:39:56;10.52;;;7.20;;
13171;SDS011;6651;53.200;10.432;2023-04-06T14:42:22;8.65;;;6.93;;
13171;SDS011;6651;53.200;10.432;2023-04-06T14:44:48;7.32;;;6.10;;
13171;SDS011;6651;53.200;10.432;2023-04-06T14:47:15;7.55;;;6.07;;
13171;SDS011;6651;53.200;10.432;2023-04-06T14:49:45;8.23;;;6.53;;
13171;SDS011;6651;53.200;10.432;2023-04-06T14:52:12;7.85;;;6.47;;
13171;SDS011;6651;53.200;10.432;2023-04-06T14:54:38;13.40;;;7.97;;
13171;SDS011;6651;53.200;10.432;2023-04-06T14:57:04;8.60;;;6.63;;
13171;SDS011;6651;53.200;10.432;2023-04-06T14:59:30;8.20;;;6.40;;